sensor_id;sensor_type;location;lat;lon;timestamp;P1;durP1;ratioP1;P2;durP2;ratioP2
76708;SDS011;65638;44.498;0.166;2023-01-31T00:05:39;21.60;;;10.93;;
76708;SDS011;65638;44.498;0.166;2023-01-31T00:19:32;25.53;;;9.57;;
76708;SDS011;65638;44.498;0.166;2023-01-31T00:33:20;27.03;;;10.37;;
76708;SDS011;65638;44.498;0.166;2023-01-31T01:01:04;18.20;;;8.70;;
76708;SDS011;65638;44.498;0.166;2023-01-31T01:14:49;24.93;;;11.00;;
76708;SDS011;65638;44.498;0.166;2023-01-31T01:28:41;19.20;;;8.17;;
76708;SDS011;65638;44.498;0.166;2023-01-31T01:42:33;18.93;;;9.80;;
76708;SDS011;65638;44.498;0.166;2023-01-31T02:10:13;19.13;;;8.77;;
76708;SDS011;65638;44.498;0.166;2023-01-31T02:24:12;23.07;;;9.57;;
76708;SDS011;65638;44.498;0.166;2023-01-31T02:37:56;21.20;;;8.63;;
76708;SDS011;65638;44.498;0.166;2023-01-31T02:51:55;17.70;;;7.07;;
76708;SDS011;65638;44.498;0.166;2023-01-31T03:05:34;16.43;;;8.33;;
76708;SDS011;65638;44.498;0.166;2023-01-31T03:19:26;18.97;;;7.87;;
76708;SDS011;65638;44.498;0.166;2023-01-31T03:33:16;14.50;;;7.33;;
76708;SDS011;65638;44.498;0.166;2023-01-31T03:47:09;16.70;;;7.73;;
76708;SDS011;65638;44.498;0.166;2023-01-31T04:00:58;17.80;;;7.70;;
76708;SDS011;65638;44.498;0.166;2023-01-31T04:14:47;17.53;;;7.77;;
76708;SDS011;65638;44.498;0.166;2023-01-31T04:28:37;17.73;;;8.60;;
76708;SDS011;65638;44.498;0.166;2023-01-31T04:42:27;23.80;;;9.53;;
76708;SDS011;65638;44.498;0.166;2023-01-31T04:56:18;20.83;;;8.37;;
76708;SDS011;65638;44.498;0.166;2023-01-31T05:10:08;15.83;;;7.13;;
76708;SDS011;65638;44.498;0.166;2023-01-31T05:23:59;16.03;;;7.87;;
76708;SDS011;65638;44.498;0.166;2023-01-31T05:37:48;19.20;;;7.37;;
76708;SDS011;65638;44.498;0.166;2023-01-31T05:51:40;18.93;;;8.13;;
76708;SDS011;65638;44.498;0.166;2023-01-31T06:05:30;14.50;;;6.73;;
76708;SDS011;65638;44.498;0.166;2023-01-31T06:33:10;12.90;;;5.87;;
76708;SDS011;65638;44.498;0.166;2023-01-31T06:46:59;19.87;;;7.83;;
76708;SDS011;65638;44.498;0.166;2023-01-31T07:00:50;19.30;;;8.50;;
76708;SDS011;65638;44.498;0.166;2023-01-31T07:14:40;21.50;;;9.20;;
76708;SDS011;65638;44.498;0.166;2023-01-31T07:28:33;16.43;;;8.63;;
76708;SDS011;65638;44.498;0.166;2023-01-31T07:42:22;19.23;;;7.23;;
76708;SDS011;65638;44.498;0.166;2023-01-31T07:56:12;18.77;;;7.33;;
76708;SDS011;65638;44.498;0.166;2023-01-31T08:10:02;12.70;;;5.97;;
76708;SDS011;65638;44.498;0.166;2023-01-31T08:23:53;21.33;;;10.10;;
76708;SDS011;65638;44.498;0.166;2023-01-31T08:37:43;13.60;;;5.70;;
76708;SDS011;65638;44.498;0.166;2023-01-31T08:51:34;15.70;;;6.50;;
76708;SDS011;65638;44.498;0.166;2023-01-31T09:05:30;16.83;;;6.90;;
76708;SDS011;65638;44.498;0.166;2023-01-31T09:19:15;11.67;;;4.73;;
76708;SDS011;65638;44.498;0.166;2023-01-31T09:46:58;11.70;;;4.67;;
76708;SDS011;65638;44.498;0.166;2023-01-31T10:00:49;12.97;;;5.33;;
76708;SDS011;65638;44.498;0.166;2023-01-31T10:14:39;11.60;;;5.03;;
76708;SDS011;65638;44.498;0.166;2023-01-31T10:28:34;5.60;;;2.57;;
76708;SDS011;65638;44.498;0.166;2023-01-31T10:42:20;11.03;;;3.83;;
76708;SDS011;65638;44.498;0.166;2023-01-31T10:56:12;10.33;;;4.43;;
76708;SDS011;65638;44.498;0.166;2023-01-31T11:23:55;5.80;;;2.43;;
76708;SDS011;65638;44.498;0.166;2023-01-31T11:37:48;5.80;;;2.97;;
76708;SDS011;65638;44.498;0.166;2023-01-31T11:51:35;6.07;;;2.50;;
76708;SDS011;65638;44.498;0.166;2023-01-31T12:05:29;3.83;;;1.90;;
76708;SDS011;65638;44.498;0.166;2023-01-31T12:19:22;3.27;;;1.57;;
76708;SDS011;65638;44.498;0.166;2023-01-31T12:33:14;3.67;;;1.63;;
76708;SDS011;65638;44.498;0.166;2023-01-31T12:47:09;12.70;;;2.33;;
76708;SDS011;65638;44.498;0.166;2023-01-31T13:00:56;2.27;;;1.30;;
76708;SDS011;65638;44.498;0.166;2023-01-31T13:14:48;5.00;;;2.23;;
76708;SDS011;65638;44.498;0.166;2023-01-31T13:28:36;5.80;;;1.57;;
76708;SDS011;65638;44.498;0.166;2023-01-31T13:42:28;10.67;;;3.43;;
76708;SDS011;65638;44.498;0.166;2023-01-31T13:56:21;2.17;;;1.37;;
76708;SDS011;65638;44.498;0.166;2023-01-31T14:23:53;3.63;;;1.60;;
76708;SDS011;65638;44.498;0.166;2023-01-31T14:37:49;3.83;;;1.57;;
76708;SDS011;65638;44.498;0.166;2023-01-31T14:51:39;2.23;;;1.27;;
76708;SDS011;65638;44.498;0.166;2023-01-31T15:19:13;5.43;;;1.73;;
76708;SDS011;65638;44.498;0.166;2023-01-31T15:33:03;1.20;;;0.90;;
76708;SDS011;65638;44.498;0.166;2023-01-31T15:46:51;2.13;;;1.20;;
76708;SDS011;65638;44.498;0.166;2023-01-31T16:00:47;1.23;;;1.00;;
76708;SDS011;65638;44.498;0.166;2023-01-31T16:14:29;2.17;;;1.20;;
76708;SDS011;65638;44.498;0.166;2023-01-31T16:28:20;4.87;;;1.63;;
76708;SDS011;65638;44.498;0.166;2023-01-31T16:42:20;5.63;;;2.23;;
76708;SDS011;65638;44.498;0.166;2023-01-31T17:09:52;4.97;;;2.30;;
76708;SDS011;65638;44.498;0.166;2023-01-31T17:23:42;9.53;;;2.10;;
76708;SDS011;65638;44.498;0.166;2023-01-31T17:37:33;7.83;;;2.33;;
76708;SDS011;65638;44.498;0.166;2023-01-31T17:51:24;7.90;;;2.97;;
76708;SDS011;65638;44.498;0.166;2023-01-31T18:05:15;4.53;;;1.87;;
76708;SDS011;65638;44.498;0.166;2023-01-31T18:19:04;5.93;;;1.93;;
76708;SDS011;65638;44.498;0.166;2023-01-31T18:32:54;6.37;;;2.20;;
76708;SDS011;65638;44.498;0.166;2023-01-31T18:46:45;6.00;;;2.10;;
76708;SDS011;65638;44.498;0.166;2023-01-31T19:00:35;4.33;;;1.97;;
76708;SDS011;65638;44.498;0.166;2023-01-31T19:14:26;5.17;;;2.27;;
76708;SDS011;65638;44.498;0.166;2023-01-31T19:28:18;3.30;;;1.80;;
76708;SDS011;65638;44.498;0.166;2023-01-31T19:42:06;3.50;;;1.80;;
76708;SDS011;65638;44.498;0.166;2023-01-31T19:55:55;6.73;;;2.00;;
76708;SDS011;65638;44.498;0.166;2023-01-31T20:09:46;6.93;;;2.13;;
76708;SDS011;65638;44.498;0.166;2023-01-31T20:23:36;4.90;;;1.93;;
76708;SDS011;65638;44.498;0.166;2023-01-31T20:51:17;6.43;;;2.73;;
76708;SDS011;65638;44.498;0.166;2023-01-31T21:05:08;5.70;;;2.60;;
76708;SDS011;65638;44.498;0.166;2023-01-31T21:18:59;5.73;;;2.87;;
76708;SDS011;65638;44.498;0.166;2023-01-31T21:32:49;12.10;;;4.63;;
76708;SDS011;65638;44.498;0.166;2023-01-31T21:46:39;7.70;;;2.60;;
76708;SDS011;65638;44.498;0.166;2023-01-31T22:00:29;3.50;;;1.33;;
76708;SDS011;65638;44.498;0.166;2023-01-31T22:14:20;4.40;;;1.60;;
76708;SDS011;65638;44.498;0.166;2023-01-31T22:28:10;3.57;;;1.67;;
76708;SDS011;65638;44.498;0.166;2023-01-31T23:09:40;4.83;;;1.80;;
76708;SDS011;65638;44.498;0.166;2023-01-31T23:23:31;2.70;;;1.00;;
76708;SDS011;65638;44.498;0.166;2023-01-31T23:37:21;2.63;;;0.97;;
76708;SDS011;65638;44.498;0.166;2023-01-31T23:51:11;1.70;;;0.90;;
